Aviation Digital Data Service (ADDS)

Output produced by METARs form (0854 UTC 26 January 2020)
found at http://www.aviationweather.gov/metar/data/
 
METAR text: WSSL 260800Z 05006KT 340V150 9999 SCT020 33/23 Q1007
Conditions at: WSSL (SINGAPORE/SELETA, SG) observed 0800 UTC 26 January 2020
Temperature: 33.0°C (91°F)
Dewpoint: 23.0°C (73°F) [RH = 56%]
Pressure (altimeter): 29.73 inches Hg (1007.0 mb)
Winds: from the NE (50 degrees) at 7 MPH (6 knots; 3.1 m/s)
Visibility: 6 or more miles (10+ km)
Ceiling: at least 12,000 feet AGL
Clouds: scattered clouds at 2000 feet AGL
Weather: no significant weather observed at this time

Forecast for: AMD
Text: TAF AMD WSSL 260800Z 2608/2712 03010KT 9999 SCT020
Forecast period: 0800 UTC 26 January 2020 to 1200 UTC 27 January 2020
Forecast type: FROM: standard forecast or significant change
Winds: from the NNE (30 degrees) at 12 MPH (10 knots; 5.1 m/s)
Visibility: 6 or more miles 10+ km)
Ceiling: at least 12,000 feet AGL
Clouds: scattered clouds at 2000 feet AGL
Weather: no significant weather forecast for this period